createdAt,value
2022-08-20T00:02:10.204Z,50.56
2022-08-20T00:04:36.783Z,50.56
2022-08-20T00:07:06.130Z,50.57
2022-08-20T00:09:33.098Z,50.56
2022-08-20T00:12:05.129Z,50.56
2022-08-20T00:14:31.764Z,50.59
2022-08-20T00:17:01.182Z,50.57
2022-08-20T00:19:27.685Z,50.60
2022-08-20T00:21:57.547Z,50.59
2022-08-20T00:24:25.620Z,50.60
2022-08-20T00:26:52.756Z,50.61
2022-08-20T00:29:20.256Z,50.63
2022-08-20T00:31:46.993Z,50.62
2022-08-20T00:34:13.446Z,50.64
2022-08-20T00:36:39.911Z,50.63
2022-08-20T00:39:06.431Z,50.66
2022-08-20T00:41:32.997Z,50.66
2022-08-20T00:44:32.150Z,50.67
2022-08-20T00:46:58.697Z,50.67
2022-08-20T00:49:28.841Z,50.67
2022-08-20T00:52:07.457Z,50.69
2022-08-20T00:54:43.516Z,50.69
2022-08-20T00:57:24.565Z,50.69
2022-08-20T00:59:52.577Z,50.69
2022-08-20T01:02:23.143Z,50.69
2022-08-20T01:04:49.849Z,50.71
2022-08-20T01:07:16.361Z,50.71
2022-08-20T01:09:58.577Z,50.71
2022-08-20T01:12:28.543Z,50.74
2022-08-20T01:14:56.475Z,50.74
2022-08-20T01:17:25.863Z,50.75
2022-08-20T01:20:12.879Z,50.76
2022-08-20T01:23:04.292Z,50.79
2022-08-20T01:25:55.063Z,50.80
2022-08-20T01:28:26.265Z,50.80
2022-08-20T01:30:53.965Z,50.81
2022-08-20T01:33:22.699Z,50.81
2022-08-20T01:35:49.753Z,50.81
2022-08-20T01:38:17.381Z,50.80
2022-08-20T01:40:57.525Z,50.81
2022-08-20T01:43:24.506Z,50.82
2022-08-20T01:45:52.097Z,50.81
2022-08-20T01:48:19.537Z,50.83
2022-08-20T01:50:55.497Z,50.83
2022-08-20T01:53:33.554Z,50.83
2022-08-20T01:56:02.893Z,50.83
2022-08-20T01:58:29.305Z,50.84
2022-08-20T02:00:57.714Z,50.82
2022-08-20T02:03:24.609Z,50.81
2022-08-20T02:05:51.105Z,50.80
2022-08-20T02:08:17.537Z,50.80
2022-08-20T02:10:43.988Z,50.80
2022-08-20T02:13:10.449Z,50.80
2022-08-20T02:15:42.865Z,50.80
2022-08-20T02:18:13.116Z,50.78
2022-08-20T02:20:40.961Z,50.78
2022-08-20T02:23:08.626Z,50.78
2022-08-20T02:25:37.787Z,50.77
2022-08-20T02:28:08.657Z,50.76
2022-08-20T02:30:40.085Z,50.75
2022-08-20T02:33:08.977Z,50.75
2022-08-20T02:35:36.357Z,50.74
2022-08-20T02:38:03.504Z,50.74
2022-08-20T02:40:31.434Z,50.73
2022-08-20T02:42:59.684Z,50.72
2022-08-20T02:45:27.460Z,50.72
2022-08-20T02:47:53.982Z,50.71
2022-08-20T02:50:22.918Z,50.70
2022-08-20T02:52:51.656Z,50.70
2022-08-20T02:55:27.031Z,50.69
2022-08-20T02:57:58.619Z,50.69
2022-08-20T03:00:27.015Z,50.70
2022-08-20T03:02:53.534Z,50.68
2022-08-20T03:05:20.079Z,50.68
2022-08-20T03:07:49.309Z,50.67
2022-08-20T03:10:16.643Z,50.67
2022-08-20T03:12:43.145Z,50.67
2022-08-20T03:15:17.923Z,50.67
2022-08-20T03:17:45.154Z,50.66
2022-08-20T03:20:12.726Z,50.65
2022-08-20T03:22:39.360Z,50.64
2022-08-20T03:25:07.442Z,50.65
2022-08-20T03:27:36.529Z,50.65
2022-08-20T03:30:07.548Z,50.63
2022-08-20T03:32:34.084Z,50.63
2022-08-20T03:35:00.525Z,50.62
2022-08-20T03:37:31.724Z,50.62
2022-08-20T03:39:58.732Z,50.59
2022-08-20T03:42:25.984Z,50.59
2022-08-20T03:44:58.958Z,50.59
2022-08-20T03:47:26.699Z,50.59
2022-08-20T03:49:58.815Z,50.56
2022-08-20T03:52:25.748Z,50.56
2022-08-20T03:54:52.174Z,50.55
2022-08-20T03:57:18.632Z,50.54
2022-08-20T03:59:45.138Z,50.51
2022-08-20T04:02:12.467Z,50.50
2022-08-20T04:04:40.699Z,50.52
2022-08-20T04:07:21.241Z,50.50
2022-08-20T04:09:47.700Z,50.48
2022-08-20T04:12:14.138Z,50.48
2022-08-20T04:14:41.328Z,50.47
2022-08-20T04:17:10.655Z,50.46
2022-08-20T04:19:37.894Z,50.45
2022-08-20T04:22:05.355Z,50.44
2022-08-20T04:24:32.759Z,50.46
2022-08-20T04:27:01.640Z,50.42
2022-08-20T04:29:32.471Z,50.44
2022-08-20T04:31:59.676Z,50.41
2022-08-20T04:34:26.340Z,50.40
2022-08-20T04:36:52.762Z,50.39
2022-08-20T04:39:19.212Z,50.39
2022-08-20T04:41:45.846Z,50.38
2022-08-20T04:44:12.656Z,50.39
2022-08-20T04:46:40.554Z,50.37
2022-08-20T04:49:07.480Z,50.36
2022-08-20T04:51:34.158Z,50.38
2022-08-20T04:54:03.652Z,50.38
2022-08-20T04:56:32.879Z,50.38
2022-08-20T04:59:01.485Z,50.36
2022-08-20T05:01:29.295Z,50.37
2022-08-20T05:06:30.344Z,50.37
2022-08-20T05:08:58.742Z,50.37
2022-08-20T05:11:34.637Z,50.36
2022-08-20T05:14:04.068Z,50.37
2022-08-20T05:16:30.497Z,50.36
2022-08-20T05:18:57.074Z,50.36
2022-08-20T05:21:23.544Z,50.37
2022-08-20T05:23:50.045Z,50.37
2022-08-20T05:26:17.654Z,50.38
2022-08-20T05:28:54.405Z,50.36
2022-08-20T05:31:32.261Z,50.38
2022-08-20T05:34:05.161Z,50.39
2022-08-20T05:36:31.591Z,50.38
2022-08-20T05:38:58.065Z,50.42
2022-08-20T05:41:28.637Z,50.48
2022-08-20T05:43:58.462Z,50.58
2022-08-20T05:46:24.924Z,50.69
2022-08-20T05:48:51.424Z,50.78
2022-08-20T05:51:17.910Z,50.89
2022-08-20T05:53:44.374Z,51.01
2022-08-20T05:56:11.012Z,51.23
2022-08-20T05:58:37.885Z,51.77
2022-08-20T06:01:04.810Z,51.95
2022-08-20T06:03:31.607Z,100.00
2022-08-20T06:06:00.692Z,100.00
2022-08-20T06:08:27.207Z,100.00
2022-08-20T06:10:53.618Z,100.00
2022-08-20T06:13:20.174Z,100.00
2022-08-20T06:15:46.757Z,100.00
2022-08-20T06:18:27.569Z,100.00
2022-08-20T06:20:55.491Z,100.00
2022-08-20T06:23:22.036Z,100.00
2022-08-20T06:25:48.575Z,100.00
2022-08-20T06:28:15.062Z,100.00
2022-08-20T06:30:41.644Z,100.00
2022-08-20T06:33:08.131Z,100.00
2022-08-20T06:35:34.724Z,100.00
2022-08-20T06:38:01.304Z,100.00
2022-08-20T06:40:28.968Z,100.00
2022-08-20T06:42:56.522Z,100.00
2022-08-20T06:45:26.395Z,100.00
2022-08-20T06:47:56.244Z,100.00
2022-08-20T06:50:27.488Z,100.00
2022-08-20T06:52:54.102Z,100.00
2022-08-20T06:55:21.827Z,100.00
2022-08-20T06:57:56.568Z,100.00
2022-08-20T07:00:23.178Z,100.00
2022-08-20T07:02:51.877Z,100.00
2022-08-20T07:05:18.418Z,100.00
2022-08-20T07:07:47.049Z,98.49
2022-08-20T07:10:15.414Z,98.16
2022-08-20T07:12:41.862Z,95.52
2022-08-20T07:15:10.758Z,99.08
2022-08-20T07:17:38.209Z,96.32
2022-08-20T07:20:14.461Z,89.82
2022-08-20T07:22:43.036Z,89.78
2022-08-20T07:25:12.538Z,89.52
2022-08-20T07:27:38.999Z,85.59
2022-08-20T07:30:12.190Z,88.44
2022-08-20T07:32:39.778Z,83.56
2022-08-20T07:35:14.878Z,83.82
2022-08-20T07:37:44.807Z,85.57
2022-08-20T07:40:14.959Z,84.47
2022-08-20T07:42:41.902Z,76.71
2022-08-20T07:45:12.625Z,79.70
2022-08-20T07:47:40.976Z,80.17
2022-08-20T07:50:09.744Z,80.23
2022-08-20T07:52:36.743Z,77.07
2022-08-20T07:55:09.056Z,77.89
2022-08-20T07:57:36.800Z,77.12
2022-08-20T08:00:08.223Z,74.74
2022-08-20T08:02:34.752Z,76.47
2022-08-20T08:05:01.442Z,76.05
2022-08-20T08:07:28.801Z,73.75
2022-08-20T08:09:57.233Z,73.28
2022-08-20T08:12:28.575Z,74.64
2022-08-20T08:14:55.080Z,75.17
2022-08-20T08:17:21.975Z,75.00
2022-08-20T08:19:50.034Z,73.37
2022-08-20T08:22:18.919Z,72.81
2022-08-20T08:24:57.011Z,70.40
2022-08-20T08:27:23.978Z,69.34
2022-08-20T08:29:50.392Z,70.81
2022-08-20T08:32:17.104Z,69.04
2022-08-20T08:34:43.520Z,65.76
2022-08-20T08:37:09.910Z,68.90
2022-08-20T08:39:36.533Z,66.81
2022-08-20T08:42:24.285Z,65.84
2022-08-20T08:44:50.826Z,68.04
2022-08-20T08:47:25.899Z,69.51
2022-08-20T08:49:52.560Z,67.98
2022-08-20T08:52:27.405Z,65.41
2022-08-20T08:54:58.888Z,67.17
2022-08-20T08:57:26.328Z,69.03
2022-08-20T09:00:03.975Z,69.80
2022-08-20T09:02:31.955Z,68.92
2022-08-20T09:05:01.831Z,71.28
2022-08-20T09:07:32.830Z,70.99
2022-08-20T09:10:00.654Z,72.60
2022-08-20T09:12:27.151Z,68.55
2022-08-20T09:14:54.246Z,69.34
2022-08-20T09:17:23.175Z,71.46
2022-08-20T09:19:50.028Z,71.33
2022-08-20T09:22:19.744Z,68.34
2022-08-20T09:24:46.228Z,76.90
2022-08-20T09:27:13.017Z,69.58
2022-08-20T09:29:39.981Z,69.26
2022-08-20T09:32:06.511Z,66.11
2022-08-20T09:34:41.726Z,66.22
2022-08-20T09:37:08.576Z,62.68
2022-08-20T09:39:35.970Z,63.22
2022-08-20T09:42:18.392Z,66.67
2022-08-20T09:44:45.053Z,66.41
2022-08-20T09:47:11.992Z,66.17
2022-08-20T09:49:39.425Z,66.30
2022-08-20T09:52:11.894Z,66.98
2022-08-20T09:54:40.004Z,71.56
2022-08-20T09:57:16.114Z,71.19
2022-08-20T09:59:42.702Z,70.43
2022-08-20T10:02:09.182Z,69.04
2022-08-20T10:04:35.704Z,67.13
2022-08-20T10:07:02.128Z,64.97
2022-08-20T10:09:28.568Z,64.88
2022-08-20T10:11:55.026Z,64.92
2022-08-20T10:14:21.464Z,66.76
2022-08-20T10:16:55.426Z,62.45
2022-08-20T10:19:25.880Z,61.22
2022-08-20T10:21:53.830Z,65.28
2022-08-20T10:24:21.374Z,66.83
2022-08-20T10:26:48.393Z,66.06
2022-08-20T10:29:15.500Z,65.05
2022-08-20T10:31:42.021Z,64.81
2022-08-20T10:34:08.508Z,65.66
2022-08-20T10:36:34.942Z,70.14
2022-08-20T10:39:01.356Z,74.54
2022-08-20T10:41:27.827Z,70.27
2022-08-20T10:43:54.223Z,71.22
2022-08-20T10:46:20.684Z,73.51
2022-08-20T10:48:47.110Z,70.49
2022-08-20T10:51:13.520Z,68.61
2022-08-20T10:53:40.101Z,69.07
2022-08-20T10:56:06.802Z,66.85
2022-08-20T10:58:39.505Z,66.44
2022-08-20T11:01:06.344Z,66.25
2022-08-20T11:03:32.893Z,63.57
2022-08-20T11:05:59.395Z,67.54
2022-08-20T11:08:34.254Z,61.86
2022-08-20T11:11:04.057Z,61.06
2022-08-20T11:13:30.482Z,63.91
2022-08-20T11:15:57.002Z,64.30
2022-08-20T11:18:23.519Z,64.87
2022-08-20T11:20:50.167Z,69.51
2022-08-20T11:23:16.613Z,85.38
2022-08-20T11:25:43.073Z,100.00
2022-08-20T11:28:09.651Z,100.00
2022-08-20T11:30:37.181Z,100.00
2022-08-20T11:33:04.302Z,100.00
2022-08-20T11:35:50.052Z,100.00
2022-08-20T11:38:18.000Z,100.00
2022-08-20T11:40:44.686Z,100.00
2022-08-20T11:43:14.681Z,100.00
2022-08-20T11:45:42.288Z,100.00
2022-08-20T11:48:08.684Z,100.00
2022-08-20T11:50:35.289Z,100.00
2022-08-20T11:53:01.874Z,100.00
2022-08-20T11:55:30.553Z,100.00
2022-08-20T11:57:59.758Z,100.00
2022-08-20T12:00:32.560Z,100.00
2022-08-20T12:03:00.470Z,100.00
2022-08-20T12:05:27.078Z,100.00
2022-08-20T12:07:53.471Z,100.00
2022-08-20T12:10:19.868Z,100.00
2022-08-20T12:12:46.274Z,100.00
2022-08-20T12:15:12.724Z,100.00
2022-08-20T12:17:39.170Z,100.00
2022-08-20T12:20:10.217Z,100.00
2022-08-20T12:22:37.032Z,100.00
2022-08-20T12:25:04.871Z,100.00
2022-08-20T12:27:32.927Z,100.00
2022-08-20T12:30:01.994Z,100.00
2022-08-20T12:32:31.064Z,100.00
2022-08-20T12:34:57.846Z,100.00
2022-08-20T12:37:27.111Z,100.00
2022-08-20T12:39:56.084Z,100.00
2022-08-20T12:42:23.118Z,100.00
2022-08-20T12:44:49.876Z,100.00
2022-08-20T12:47:18.100Z,100.00
2022-08-20T12:49:52.209Z,100.00
2022-08-20T12:52:20.266Z,100.00
2022-08-20T12:54:47.305Z,100.00
2022-08-20T12:57:16.744Z,100.00
2022-08-20T12:59:43.244Z,100.00
2022-08-20T13:02:18.559Z,100.00
2022-08-20T13:04:45.708Z,100.00
2022-08-20T13:07:12.948Z,100.00
2022-08-20T13:09:40.316Z,100.00
2022-08-20T13:12:07.447Z,100.00
2022-08-20T13:14:34.307Z,100.00
2022-08-20T13:17:01.603Z,100.00
2022-08-20T13:19:30.048Z,100.00
2022-08-20T13:21:57.073Z,100.00
2022-08-20T13:24:23.532Z,100.00
2022-08-20T13:26:50.685Z,100.00
2022-08-20T13:29:18.647Z,100.00
2022-08-20T13:31:45.228Z,100.00
2022-08-20T13:34:12.163Z,100.00
2022-08-20T13:36:38.701Z,100.00
2022-08-20T13:39:06.695Z,100.00
2022-08-20T13:41:33.883Z,100.00
2022-08-20T13:44:00.421Z,100.00
2022-08-20T13:46:26.896Z,100.00
2022-08-20T13:48:53.333Z,100.00
2022-08-20T13:51:19.767Z,100.00
2022-08-20T13:53:48.255Z,100.00
2022-08-20T13:56:14.846Z,100.00
2022-08-20T13:58:41.265Z,100.00
2022-08-20T14:01:07.763Z,100.00
2022-08-20T14:03:34.218Z,100.00
2022-08-20T14:06:02.648Z,100.00
2022-08-20T14:08:29.112Z,100.00
2022-08-20T14:10:55.942Z,100.00
2022-08-20T14:13:25.939Z,100.00
2022-08-20T14:15:52.727Z,100.00
2022-08-20T14:18:19.233Z,100.00
2022-08-20T14:20:46.304Z,100.00
2022-08-20T14:23:13.618Z,100.00
2022-08-20T14:25:40.619Z,100.00
2022-08-20T14:28:19.586Z,100.00
2022-08-20T14:30:47.344Z,100.00
2022-08-20T14:33:19.887Z,100.00
2022-08-20T14:35:46.448Z,100.00
2022-08-20T14:38:12.910Z,100.00
2022-08-20T14:40:39.362Z,100.00
2022-08-20T14:43:05.834Z,100.00
2022-08-20T14:45:32.228Z,100.00
2022-08-20T14:47:58.722Z,100.00
2022-08-20T14:50:33.993Z,100.00
2022-08-20T14:53:01.300Z,100.00
2022-08-20T14:55:33.031Z,100.00
2022-08-20T14:57:59.540Z,100.00
2022-08-20T15:00:29.476Z,100.00
2022-08-20T15:02:56.915Z,100.00
2022-08-20T15:05:23.840Z,100.00
2022-08-20T15:07:53.931Z,100.00
2022-08-20T15:10:27.144Z,100.00
2022-08-20T15:12:54.275Z,100.00
2022-08-20T15:15:21.118Z,100.00
2022-08-20T15:17:51.020Z,100.00
2022-08-20T15:20:21.127Z,100.00
2022-08-20T15:22:48.679Z,100.00
2022-08-20T15:25:19.452Z,100.00
2022-08-20T15:27:46.367Z,100.00
2022-08-20T15:30:18.751Z,100.00
2022-08-20T15:32:45.349Z,100.00
2022-08-20T15:35:11.963Z,100.00
2022-08-20T15:37:44.558Z,100.00
2022-08-20T15:40:16.003Z,100.00
2022-08-20T15:42:43.005Z,100.00
2022-08-20T15:45:11.141Z,100.00
2022-08-20T15:47:50.786Z,100.00
2022-08-20T15:50:48.377Z,100.00
2022-08-20T15:53:26.261Z,100.00
2022-08-20T15:56:13.771Z,100.00
2022-08-20T15:58:56.645Z,100.00
2022-08-20T16:01:28.888Z,100.00
2022-08-20T16:04:29.716Z,100.00
2022-08-20T16:07:03.058Z,100.00
2022-08-20T16:09:52.739Z,100.00
2022-08-20T16:12:37.376Z,100.00
2022-08-20T16:15:20.187Z,100.00
2022-08-20T16:17:57.992Z,100.00
2022-08-20T16:20:35.139Z,100.00
2022-08-20T16:23:02.885Z,100.00
2022-08-20T16:25:52.917Z,100.00
2022-08-20T16:28:26.914Z,100.00
2022-08-20T16:31:05.253Z,100.00
2022-08-20T16:33:35.834Z,100.00
2022-08-20T16:36:20.154Z,100.00
2022-08-20T16:39:25.274Z,100.00
2022-08-20T16:41:54.675Z,100.00
2022-08-20T16:44:29.923Z,100.00
2022-08-20T16:47:14.078Z,100.00
2022-08-20T16:49:48.317Z,100.00
2022-08-20T16:52:14.800Z,100.00
2022-08-20T16:54:43.989Z,100.00
2022-08-20T16:57:16.556Z,100.00
2022-08-20T16:59:58.921Z,100.00
2022-08-20T17:02:26.357Z,100.00
2022-08-20T17:04:59.505Z,100.00
2022-08-20T17:07:46.352Z,100.00
2022-08-20T17:10:29.781Z,100.00
2022-08-20T17:13:10.905Z,100.00
2022-08-20T17:15:37.300Z,100.00
2022-08-20T17:18:24.233Z,100.00
2022-08-20T17:20:50.656Z,100.00
2022-08-20T17:23:19.138Z,100.00
2022-08-20T17:26:04.965Z,100.00
2022-08-20T17:28:35.184Z,100.00
2022-08-20T17:31:01.954Z,100.00
2022-08-20T17:33:32.735Z,100.00
2022-08-20T17:36:08.937Z,100.00
2022-08-20T17:38:48.088Z,100.00
2022-08-20T17:41:22.157Z,100.00
2022-08-20T17:43:58.022Z,100.00
2022-08-20T17:46:25.313Z,100.00
2022-08-20T17:48:52.733Z,100.00
2022-08-20T17:51:23.979Z,100.00
2022-08-20T17:53:55.035Z,100.00
2022-08-20T17:56:27.393Z,100.00
2022-08-20T17:59:03.381Z,100.00
2022-08-20T18:01:32.366Z,100.00
2022-08-20T18:03:58.762Z,100.00
2022-08-20T18:06:29.860Z,100.00
2022-08-20T18:09:14.517Z,100.00
2022-08-20T18:11:58.516Z,100.00
2022-08-20T18:14:57.324Z,100.00
2022-08-20T18:17:39.080Z,100.00
2022-08-20T18:20:23.413Z,100.00
2022-08-20T18:22:56.847Z,100.00
2022-08-20T18:25:48.186Z,100.00
2022-08-20T18:28:19.345Z,100.00
2022-08-20T18:30:58.106Z,100.00
2022-08-20T18:33:33.703Z,100.00
2022-08-20T18:36:12.417Z,100.00
2022-08-20T18:38:41.998Z,100.00
2022-08-20T18:41:27.772Z,100.00
2022-08-20T18:44:03.651Z,100.00
2022-08-20T18:46:30.155Z,100.00
2022-08-20T18:48:59.889Z,100.00
2022-08-20T18:51:37.520Z,100.00
2022-08-20T18:54:04.817Z,100.00
2022-08-20T18:56:37.461Z,100.00
2022-08-20T18:59:17.714Z,100.00
2022-08-20T19:01:47.345Z,100.00
2022-08-20T19:04:18.032Z,100.00
2022-08-20T19:06:55.482Z,100.00
2022-08-20T19:09:46.791Z,100.00
2022-08-20T19:12:26.897Z,100.00
2022-08-20T19:15:16.181Z,100.00
2022-08-20T19:17:54.571Z,100.00
2022-08-20T19:20:24.813Z,100.00
2022-08-20T19:22:53.909Z,100.00
2022-08-20T19:25:30.258Z,100.00
2022-08-20T19:27:59.800Z,100.00
2022-08-20T19:30:36.411Z,100.00
2022-08-20T19:33:03.803Z,100.00
2022-08-20T19:35:30.427Z,100.00
2022-08-20T19:37:56.904Z,100.00
2022-08-20T19:40:28.318Z,100.00
2022-08-20T19:42:56.462Z,100.00
2022-08-20T19:45:48.540Z,100.00
2022-08-20T19:48:33.725Z,100.00
2022-08-20T19:51:06.305Z,100.00
2022-08-20T19:53:35.881Z,100.00
2022-08-20T19:56:25.071Z,100.00
2022-08-20T19:59:03.904Z,100.00
2022-08-20T20:01:30.994Z,100.00
2022-08-20T20:04:13.955Z,100.00
2022-08-20T20:06:45.408Z,100.00
2022-08-20T20:09:21.771Z,100.00
2022-08-20T20:11:52.828Z,100.00
2022-08-20T20:14:21.213Z,100.00
2022-08-20T20:16:51.168Z,100.00
2022-08-20T20:19:27.464Z,100.00
2022-08-20T20:22:20.233Z,100.00
2022-08-20T20:25:18.967Z,100.00
2022-08-20T20:27:52.692Z,100.00
2022-08-20T20:30:42.901Z,100.00
2022-08-20T20:33:33.831Z,100.00
2022-08-20T20:36:12.230Z,100.00
2022-08-20T20:38:52.504Z,100.00
2022-08-20T20:41:23.046Z,100.00
2022-08-20T20:44:00.935Z,84.23
2022-08-20T20:46:29.040Z,72.33
2022-08-20T20:49:00.770Z,64.35
2022-08-20T20:51:35.580Z,60.97
2022-08-20T20:54:21.239Z,59.49
2022-08-20T20:57:06.971Z,58.49
2022-08-20T20:59:36.114Z,57.92
2022-08-20T21:02:03.304Z,56.81
2022-08-20T21:04:29.860Z,55.53
2022-08-20T21:07:06.531Z,54.33
2022-08-20T21:09:35.233Z,53.54
2022-08-20T21:12:03.111Z,52.92
2022-08-20T21:14:29.679Z,52.44
2022-08-20T21:17:00.302Z,51.74
2022-08-20T21:19:30.383Z,51.39
2022-08-20T21:21:57.009Z,51.26
2022-08-20T21:24:28.328Z,51.25
2022-08-20T21:26:56.113Z,51.17
2022-08-20T21:29:40.557Z,51.08
2022-08-20T21:32:07.347Z,51.01
2022-08-20T21:34:40.359Z,50.95
2022-08-20T21:37:06.971Z,50.90
2022-08-20T21:39:33.484Z,50.86
2022-08-20T21:42:02.555Z,50.83
2022-08-20T21:44:30.842Z,50.78
2022-08-20T21:46:59.874Z,50.78
2022-08-20T21:49:28.338Z,50.77
2022-08-20T21:51:55.421Z,50.74
2022-08-20T21:54:23.008Z,50.72
2022-08-20T21:56:54.711Z,50.70
2022-08-20T21:59:22.747Z,50.69
2022-08-20T22:01:49.766Z,50.67
2022-08-20T22:04:16.270Z,50.66
2022-08-20T22:06:42.778Z,50.66
2022-08-20T22:09:09.721Z,50.62
2022-08-20T22:11:36.357Z,50.62
2022-08-20T22:14:06.753Z,50.61
2022-08-20T22:16:33.182Z,50.59
2022-08-20T22:18:59.820Z,50.59
2022-08-20T22:21:29.301Z,50.59
2022-08-20T22:24:03.475Z,50.56
2022-08-20T22:26:31.259Z,50.56
2022-08-20T22:28:57.766Z,50.56
2022-08-20T22:31:28.788Z,50.55
2022-08-20T22:33:58.013Z,50.54
2022-08-20T22:36:27.075Z,50.53
2022-08-20T22:38:56.409Z,50.52
2022-08-20T22:41:23.002Z,50.51
2022-08-20T22:43:56.379Z,50.51
2022-08-20T22:46:26.487Z,50.51
2022-08-20T22:48:56.062Z,50.51
2022-08-20T22:51:27.539Z,50.49
2022-08-20T22:53:54.428Z,50.50
2022-08-20T22:56:21.959Z,50.48
2022-08-20T22:58:50.156Z,50.48
2022-08-20T23:01:17.378Z,50.47
2022-08-20T23:03:43.946Z,50.47
2022-08-20T23:06:10.965Z,50.47
2022-08-20T23:08:38.178Z,50.46
2022-08-20T23:11:04.949Z,50.45
2022-08-20T23:13:31.476Z,50.45
2022-08-20T23:15:58.367Z,50.45
2022-08-20T23:18:24.973Z,50.43
2022-08-20T23:20:54.576Z,50.44
2022-08-20T23:23:21.061Z,50.43
2022-08-20T23:25:47.884Z,50.41
2022-08-20T23:28:18.109Z,50.39
2022-08-20T23:30:45.255Z,50.39
2022-08-20T23:33:12.163Z,50.38
2022-08-20T23:35:39.731Z,50.37
2022-08-20T23:38:06.879Z,50.38
2022-08-20T23:43:00.338Z,50.37
2022-08-20T23:45:27.921Z,50.37
2022-08-20T23:47:54.400Z,50.38
2022-08-20T23:50:25.164Z,50.37
2022-08-20T23:52:52.597Z,50.36
2022-08-20T23:55:19.922Z,50.37
2022-08-20T23:57:46.581Z,50.35
